createdAt,value
2022-10-18T00:00:04.753Z,11.7
2022-10-18T00:01:04.807Z,11.7
2022-10-18T00:02:04.866Z,11.6
2022-10-18T00:03:04.788Z,11.6
2022-10-18T00:04:04.781Z,11.5
2022-10-18T00:05:04.767Z,11.5
2022-10-18T00:06:04.769Z,11.4
2022-10-18T00:07:04.805Z,11.4
2022-10-18T00:08:04.788Z,11.3
2022-10-18T00:09:04.781Z,11.3
2022-10-18T00:10:04.792Z,11.2
2022-10-18T00:11:04.773Z,11.1
2022-10-18T00:12:04.822Z,11.1
2022-10-18T00:13:04.797Z,11
2022-10-18T00:14:04.785Z,11
2022-10-18T00:15:04.792Z,10.9
2022-10-18T00:16:04.809Z,10.9
2022-10-18T00:17:04.834Z,10.9
2022-10-18T00:18:04.810Z,10.9
2022-10-18T00:19:04.812Z,10.8
2022-10-18T00:20:04.841Z,10.8
2022-10-18T00:21:04.816Z,10.8
2022-10-18T00:22:04.824Z,10.8
2022-10-18T00:23:04.823Z,10.9
2022-10-18T00:24:04.826Z,10.9
2022-10-18T00:25:04.858Z,10.9
2022-10-18T00:26:04.820Z,10.9
2022-10-18T00:27:04.862Z,10.9
2022-10-18T00:28:04.851Z,10.9
2022-10-18T00:29:04.842Z,10.9
2022-10-18T00:30:04.845Z,10.9
2022-10-18T00:31:04.826Z,10.9
2022-10-18T00:32:04.842Z,10.9
2022-10-18T00:33:04.873Z,10.9
2022-10-18T00:34:04.877Z,10.9
2022-10-18T00:35:04.862Z,10.9
2022-10-18T00:36:04.878Z,10.8
2022-10-18T00:37:04.879Z,10.8
2022-10-18T00:38:04.894Z,10.8
2022-10-18T00:39:04.863Z,10.8
2022-10-18T00:40:04.882Z,10.8
2022-10-18T00:41:04.917Z,10.8
2022-10-18T00:42:04.902Z,10.8
2022-10-18T00:43:04.899Z,10.8
2022-10-18T00:44:04.877Z,10.8
2022-10-18T00:45:04.876Z,10.8
2022-10-18T00:46:04.877Z,10.8
2022-10-18T00:47:04.898Z,10.8
2022-10-18T00:48:04.934Z,10.8
2022-10-18T00:49:04.909Z,10.9
2022-10-18T00:50:04.896Z,10.9
2022-10-18T00:51:04.916Z,10.9
2022-10-18T00:52:04.912Z,10.9
2022-10-18T00:53:04.921Z,11
2022-10-18T00:54:04.918Z,11
2022-10-18T00:55:04.919Z,11
2022-10-18T00:56:04.915Z,11
2022-10-18T00:57:05.101Z,11.1
2022-10-18T00:58:04.937Z,11.1
2022-10-18T00:59:04.916Z,11.1
2022-10-18T01:00:04.914Z,11.1
2022-10-18T01:01:04.950Z,11
2022-10-18T01:02:04.978Z,11
2022-10-18T01:03:04.933Z,10.9
2022-10-18T01:04:04.931Z,10.9
2022-10-18T01:05:04.938Z,10.8
2022-10-18T01:06:04.921Z,10.7
2022-10-18T01:07:04.957Z,10.7
2022-10-18T01:08:04.958Z,10.6
2022-10-18T01:09:04.955Z,10.6
2022-10-18T01:10:04.940Z,10.5
2022-10-18T01:11:04.918Z,10.5
2022-10-18T01:12:04.935Z,10.5
2022-10-18T01:13:04.951Z,10.5
2022-10-18T01:14:04.930Z,10.5
2022-10-18T01:15:04.943Z,10.5
2022-10-18T01:16:04.961Z,10.6
2022-10-18T01:17:05.000Z,10.6
2022-10-18T01:18:04.978Z,10.6
2022-10-18T01:19:04.948Z,10.7
2022-10-18T01:20:04.974Z,10.7
2022-10-18T01:21:04.967Z,10.7
2022-10-18T01:22:04.978Z,10.8
2022-10-18T01:23:05.014Z,10.8
2022-10-18T01:24:04.982Z,10.8
2022-10-18T01:25:04.971Z,10.8
2022-10-18T01:26:04.982Z,10.8
2022-10-18T01:27:04.969Z,10.8
2022-10-18T01:28:04.976Z,10.8
2022-10-18T01:29:05.043Z,10.8
2022-10-18T01:30:04.993Z,10.8
2022-10-18T01:31:04.986Z,10.8
2022-10-18T01:32:04.988Z,10.8
2022-10-18T01:33:05.001Z,10.9
2022-10-18T01:34:04.999Z,10.9
2022-10-18T01:35:04.992Z,11
2022-10-18T01:36:04.999Z,11
2022-10-18T01:37:05.011Z,11
2022-10-18T01:38:05.008Z,11
2022-10-18T01:39:04.986Z,11.1
2022-10-18T01:40:05.014Z,11.1
2022-10-18T01:41:05.012Z,11.1
2022-10-18T01:42:04.996Z,11.1
2022-10-18T01:44:04.999Z,11.2
2022-10-18T01:45:04.996Z,11.1
2022-10-18T01:46:04.994Z,11.1
2022-10-18T01:47:04.986Z,11.1
2022-10-18T01:48:05.026Z,11.1
2022-10-18T01:49:05.019Z,11.1
2022-10-18T01:50:05.022Z,11.1
2022-10-18T01:51:05.031Z,11.1
2022-10-18T01:52:05.066Z,11.1
2022-10-18T01:53:05.052Z,11.1
2022-10-18T01:54:05.011Z,11.1
2022-10-18T01:55:05.027Z,11.2
2022-10-18T01:56:05.027Z,11.2
2022-10-18T01:57:05.029Z,11.3
2022-10-18T01:58:05.058Z,11.3
2022-10-18T01:59:05.033Z,11.3
2022-10-18T02:00:05.028Z,11.3
2022-10-18T02:01:05.099Z,11.3
2022-10-18T02:02:05.046Z,11.3
2022-10-18T02:03:05.057Z,11.3
2022-10-18T02:04:05.047Z,11.3
2022-10-18T02:05:05.047Z,11.3
2022-10-18T02:06:05.053Z,11.2
2022-10-18T02:07:05.045Z,11.2
2022-10-18T02:08:12.460Z,11.2
2022-10-18T02:09:05.066Z,11.1
2022-10-18T02:10:05.105Z,11.1
2022-10-18T02:11:05.056Z,11
2022-10-18T02:12:05.099Z,11
2022-10-18T02:13:05.107Z,11
2022-10-18T02:14:05.070Z,11.1
2022-10-18T02:15:05.070Z,11.1
2022-10-18T02:16:05.074Z,11.1
2022-10-18T02:17:05.067Z,11.1
2022-10-18T02:18:05.075Z,11.1
2022-10-18T02:19:05.074Z,11.1
2022-10-18T02:20:05.067Z,11.1
2022-10-18T02:21:05.073Z,11.2
2022-10-18T02:22:05.087Z,11.2
2022-10-18T02:23:05.078Z,11.2
2022-10-18T02:24:05.082Z,11.2
2022-10-18T02:25:05.117Z,11.2
2022-10-18T02:26:05.081Z,11.3
2022-10-18T02:27:05.094Z,11.3
2022-10-18T02:28:05.099Z,11.3
2022-10-18T02:29:05.080Z,11.3
2022-10-18T02:30:05.089Z,11.3
2022-10-18T02:31:05.100Z,11.3
2022-10-18T02:32:05.093Z,11.3
2022-10-18T02:33:05.100Z,11.3
2022-10-18T02:34:05.131Z,11.3
2022-10-18T02:35:05.100Z,11.3
2022-10-18T02:36:05.110Z,11.3
2022-10-18T02:37:05.106Z,11.3
2022-10-18T02:38:05.118Z,11.3
2022-10-18T02:39:05.120Z,11.3
2022-10-18T02:40:05.103Z,11.3
2022-10-18T02:41:05.137Z,11.3
2022-10-18T02:42:05.112Z,11.3
2022-10-18T02:43:05.111Z,11.4
2022-10-18T02:44:05.113Z,11.4
2022-10-18T02:45:05.137Z,11.4
2022-10-18T02:46:05.133Z,11.4
2022-10-18T02:47:05.160Z,11.4
2022-10-18T02:48:05.147Z,11.4
2022-10-18T02:49:05.130Z,11.4
2022-10-18T02:50:05.137Z,11.4
2022-10-18T02:51:05.141Z,11.5
2022-10-18T02:52:05.127Z,11.5
2022-10-18T02:53:05.156Z,11.5
2022-10-18T02:54:05.125Z,11.5
2022-10-18T02:55:05.160Z,11.5
2022-10-18T02:56:05.138Z,11.5
2022-10-18T02:57:05.166Z,11.5
2022-10-18T02:58:05.161Z,11.5
2022-10-18T02:59:05.139Z,11.5
2022-10-18T03:00:05.354Z,11.5
2022-10-18T03:01:05.137Z,11.5
2022-10-18T03:02:05.143Z,11.5
2022-10-18T03:03:05.165Z,11.5
2022-10-18T03:04:05.193Z,11.5
2022-10-18T03:05:05.199Z,11.5
2022-10-18T03:06:05.173Z,11.5
2022-10-18T03:07:05.168Z,11.5
2022-10-18T03:08:05.176Z,11.5
2022-10-18T03:09:05.168Z,11.5
2022-10-18T03:10:05.204Z,11.5
2022-10-18T03:11:05.193Z,11.5
2022-10-18T03:12:05.202Z,11.5
2022-10-18T03:13:05.204Z,11.5
2022-10-18T03:14:05.185Z,11.5
2022-10-18T03:15:05.195Z,11.5
2022-10-18T03:16:05.198Z,11.5
2022-10-18T03:17:05.203Z,11.5
2022-10-18T03:18:05.192Z,11.5
2022-10-18T03:19:05.201Z,11.5
2022-10-18T03:20:05.181Z,11.5
2022-10-18T03:21:05.195Z,11.5
2022-10-18T03:22:05.182Z,11.5
2022-10-18T03:23:05.211Z,11.5
2022-10-18T03:24:05.237Z,11.5
2022-10-18T03:25:05.216Z,11.6
2022-10-18T03:26:05.220Z,11.6
2022-10-18T03:27:05.224Z,11.6
2022-10-18T03:28:05.251Z,11.6
2022-10-18T03:29:05.309Z,11.6
2022-10-18T03:30:05.232Z,11.6
2022-10-18T03:31:05.239Z,11.6
2022-10-18T03:32:05.215Z,11.6
2022-10-18T03:33:05.272Z,11.6
2022-10-18T03:34:05.243Z,11.6
2022-10-18T03:35:05.232Z,11.6
2022-10-18T03:36:05.231Z,11.6
2022-10-18T03:37:05.516Z,11.7
2022-10-18T03:38:05.238Z,11.7
2022-10-18T03:39:05.237Z,11.7
2022-10-18T03:40:05.241Z,11.7
2022-10-18T03:41:05.283Z,11.7
2022-10-18T03:42:05.247Z,11.7
2022-10-18T03:43:05.260Z,11.7
2022-10-18T03:44:05.248Z,11.7
2022-10-18T03:45:05.278Z,11.7
2022-10-18T03:46:05.268Z,11.7
2022-10-18T03:47:05.268Z,11.7
2022-10-18T03:48:05.303Z,11.7
2022-10-18T03:49:05.276Z,11.7
2022-10-18T03:50:05.274Z,11.7
2022-10-18T03:51:05.278Z,11.7
2022-10-18T03:52:05.300Z,11.8
2022-10-18T03:53:05.317Z,11.8
2022-10-18T03:54:05.283Z,11.8
2022-10-18T03:55:05.303Z,11.8
2022-10-18T03:56:05.302Z,11.8
2022-10-18T03:57:05.278Z,11.8
2022-10-18T03:58:05.312Z,11.9
2022-10-18T03:59:05.295Z,11.9
2022-10-18T04:00:05.283Z,11.9
2022-10-18T04:01:05.308Z,11.9
2022-10-18T04:02:05.342Z,11.9
2022-10-18T04:03:05.324Z,11.9
2022-10-18T04:04:05.303Z,12
2022-10-18T04:05:05.340Z,12
2022-10-18T04:06:05.311Z,12
2022-10-18T04:07:05.314Z,12
2022-10-18T04:08:05.352Z,12
2022-10-18T04:09:06.568Z,12
2022-10-18T04:10:05.317Z,12
2022-10-18T04:11:05.323Z,12
2022-10-18T04:12:05.322Z,12
2022-10-18T04:13:05.341Z,12
2022-10-18T04:14:05.318Z,12
2022-10-18T04:15:05.324Z,12
2022-10-18T04:16:05.317Z,12
2022-10-18T04:17:05.352Z,12.1
2022-10-18T04:18:05.346Z,12.1
2022-10-18T04:19:05.351Z,12.1
2022-10-18T04:20:05.336Z,12.1
2022-10-18T04:21:05.339Z,12.1
2022-10-18T04:22:05.366Z,12.1
2022-10-18T04:23:05.376Z,12.1
2022-10-18T04:24:05.358Z,12.1
2022-10-18T04:25:05.387Z,12.1
2022-10-18T04:26:05.394Z,12.1
2022-10-18T04:27:05.380Z,12.1
2022-10-18T04:28:05.389Z,12.1
2022-10-18T04:29:05.425Z,12.1
2022-10-18T04:30:05.705Z,12.1
2022-10-18T04:31:05.400Z,12.1
2022-10-18T04:32:05.412Z,12.1
2022-10-18T04:33:05.420Z,12.1
2022-10-18T04:34:05.421Z,12.1
2022-10-18T04:35:05.484Z,12.1
2022-10-18T04:36:05.419Z,12.2
2022-10-18T04:37:05.422Z,12.2
2022-10-18T04:38:05.432Z,12.2
2022-10-18T04:39:05.413Z,12.2
2022-10-18T04:40:05.426Z,12.2
2022-10-18T04:41:05.428Z,12.2
2022-10-18T04:42:05.412Z,12.2
2022-10-18T04:43:05.457Z,12.2
2022-10-18T04:44:05.403Z,12.2
2022-10-18T04:45:05.408Z,12.2
2022-10-18T04:46:05.446Z,12.2
2022-10-18T04:47:05.419Z,12.2
2022-10-18T04:48:05.450Z,12.2
2022-10-18T04:49:05.415Z,12.2
2022-10-18T04:50:05.445Z,12.2
2022-10-18T04:51:05.450Z,12.2
2022-10-18T04:52:05.425Z,12.2
2022-10-18T04:53:05.459Z,12.2
2022-10-18T04:54:05.435Z,12.2
2022-10-18T04:55:05.436Z,12.2
2022-10-18T04:56:05.452Z,12.2
2022-10-18T04:57:05.458Z,12.2
2022-10-18T04:58:05.444Z,12.2
2022-10-18T04:59:05.437Z,12.2
2022-10-18T05:00:05.433Z,12.3
2022-10-18T05:01:05.441Z,12.3
2022-10-18T05:02:05.482Z,12.3
2022-10-18T05:03:05.488Z,12.3
2022-10-18T05:04:05.448Z,12.3
2022-10-18T05:05:07.060Z,12.3
2022-10-18T05:06:05.466Z,12.3
2022-10-18T05:07:05.481Z,12.3
2022-10-18T05:08:05.473Z,12.2
2022-10-18T05:09:05.464Z,12.2
2022-10-18T05:10:05.481Z,12.2
2022-10-18T05:11:05.509Z,12.2
2022-10-18T05:12:05.475Z,12.2
2022-10-18T05:13:05.478Z,12.2
2022-10-18T05:14:05.471Z,12.2
2022-10-18T05:15:05.469Z,12.2
2022-10-18T05:16:05.488Z,12.2
2022-10-18T05:17:05.516Z,12.2
2022-10-18T05:18:05.512Z,12.2
2022-10-18T05:19:05.488Z,12.2
2022-10-18T05:20:05.575Z,12.2
2022-10-18T05:21:05.481Z,12.2
2022-10-18T05:22:05.543Z,12.2
2022-10-18T05:23:05.534Z,12.2
2022-10-18T05:24:05.510Z,12.2
2022-10-18T05:25:05.509Z,12.2
2022-10-18T05:26:05.738Z,12.2
2022-10-18T05:27:05.501Z,12.3
2022-10-18T05:28:06.400Z,12.3
2022-10-18T05:29:05.611Z,12.3
2022-10-18T05:30:05.822Z,12.3
2022-10-18T05:31:05.513Z,12.3
2022-10-18T05:32:05.521Z,12.4
2022-10-18T05:33:05.556Z,12.4
2022-10-18T05:34:05.527Z,12.4
2022-10-18T05:35:05.529Z,12.4
2022-10-18T05:36:05.535Z,12.4
2022-10-18T05:37:05.554Z,12.4
2022-10-18T05:38:05.546Z,12.4
2022-10-18T05:39:05.581Z,12.4
2022-10-18T05:40:05.546Z,12.4
2022-10-18T05:41:05.539Z,12.4
2022-10-18T05:42:05.537Z,12.4
2022-10-18T05:43:05.590Z,12.4
2022-10-18T05:44:05.560Z,12.4
2022-10-18T05:45:05.562Z,12.4
2022-10-18T05:46:08.197Z,12.4
2022-10-18T05:47:05.591Z,12.4
2022-10-18T05:48:05.892Z,12.4
2022-10-18T05:49:05.579Z,12.4
2022-10-18T05:50:05.564Z,12.3
2022-10-18T05:51:05.571Z,12.3
2022-10-18T05:52:05.563Z,12.3
2022-10-18T05:53:11.812Z,12.3
2022-10-18T05:54:05.572Z,12.3
2022-10-18T05:55:05.591Z,12.3
2022-10-18T05:56:05.621Z,12.3
2022-10-18T05:57:05.599Z,12.2
2022-10-18T05:58:05.606Z,12.2
2022-10-18T05:59:05.595Z,12.2
2022-10-18T06:00:05.587Z,12.2
2022-10-18T06:01:05.587Z,12.2
2022-10-18T06:02:05.658Z,12.2
2022-10-18T06:03:05.632Z,12.3
2022-10-18T06:04:05.595Z,12.3
2022-10-18T06:05:05.602Z,12.3
2022-10-18T06:06:05.606Z,12.3
2022-10-18T06:07:05.597Z,12.3
2022-10-18T06:08:07.897Z,12.4
2022-10-18T06:09:05.617Z,12.4
2022-10-18T06:10:05.670Z,12.4
2022-10-18T06:11:05.636Z,12.4
2022-10-18T06:12:05.613Z,12.4
2022-10-18T06:13:05.656Z,12.3
2022-10-18T06:14:05.617Z,12.3
2022-10-18T06:15:05.614Z,12.3
2022-10-18T06:16:05.607Z,12.3
2022-10-18T06:17:05.640Z,12.3
2022-10-18T06:18:05.635Z,12.3
2022-10-18T06:19:05.658Z,12.3
2022-10-18T06:20:05.635Z,12.3
2022-10-18T06:21:05.646Z,12.3
2022-10-18T06:22:05.664Z,12.3
2022-10-18T06:23:05.648Z,12.3
2022-10-18T06:24:05.646Z,12.3
2022-10-18T06:25:05.664Z,12.4
2022-10-18T06:26:05.676Z,12.4
2022-10-18T06:28:06.824Z,12.4
2022-10-18T06:29:05.661Z,12.4
2022-10-18T06:30:05.662Z,12.5
2022-10-18T06:31:05.661Z,12.5
2022-10-18T06:32:05.665Z,12.5
2022-10-18T06:33:05.691Z,12.5
2022-10-18T06:34:05.675Z,12.5
2022-10-18T06:35:05.751Z,12.5
2022-10-18T06:36:05.678Z,12.5
2022-10-18T06:37:05.670Z,12.6
2022-10-18T06:38:05.691Z,12.6
2022-10-18T06:39:05.703Z,12.6
2022-10-18T06:40:05.697Z,12.6
2022-10-18T06:41:05.712Z,12.6
2022-10-18T06:42:05.698Z,12.6
2022-10-18T06:43:16.431Z,12.6
2022-10-18T06:44:05.702Z,12.7
2022-10-18T06:45:05.698Z,12.7
2022-10-18T06:46:05.708Z,12.7
2022-10-18T06:47:05.697Z,12.8
2022-10-18T06:48:05.781Z,12.8
2022-10-18T06:49:05.702Z,12.8
2022-10-18T06:50:05.707Z,12.9
2022-10-18T06:51:05.707Z,12.9
2022-10-18T06:52:05.702Z,12.9
2022-10-18T06:53:05.717Z,12.9
2022-10-18T06:54:17.243Z,12.9
2022-10-18T06:55:09.049Z,13
2022-10-18T06:56:05.703Z,13
2022-10-18T06:57:05.702Z,13
2022-10-18T06:58:05.743Z,13
2022-10-18T06:59:05.738Z,13
2022-10-18T07:00:05.723Z,12.9
2022-10-18T07:01:05.717Z,12.9
2022-10-18T07:02:05.794Z,12.9
2022-10-18T07:03:05.753Z,12.9
2022-10-18T07:04:05.710Z,12.8
2022-10-18T07:05:05.728Z,12.8
2022-10-18T07:06:05.731Z,12.8
2022-10-18T07:07:05.724Z,12.8
2022-10-18T07:08:05.736Z,12.8
2022-10-18T07:09:05.719Z,12.8
2022-10-18T07:10:05.728Z,12.8
2022-10-18T07:11:05.736Z,12.8
2022-10-18T07:12:05.756Z,12.9
2022-10-18T07:13:30.708Z,12.9
2022-10-18T07:14:05.744Z,13.1
2022-10-18T07:15:09.276Z,13.2
2022-10-18T07:16:05.842Z,13.3
2022-10-18T07:17:05.754Z,13.4
2022-10-18T07:18:05.772Z,13.6
2022-10-18T07:19:05.802Z,13.7
2022-10-18T07:20:05.766Z,13.9
2022-10-18T07:21:05.752Z,14
2022-10-18T07:22:05.773Z,14.1
2022-10-18T07:23:05.774Z,14.2
2022-10-18T07:24:05.777Z,14.3
2022-10-18T07:25:05.786Z,14.3
2022-10-18T07:26:05.768Z,14.4
2022-10-18T07:27:05.789Z,14.4
2022-10-18T07:28:05.803Z,14.5
2022-10-18T07:29:05.910Z,14.5
2022-10-18T07:30:05.798Z,14.6
2022-10-18T07:31:06.046Z,14.6
2022-10-18T07:32:05.816Z,14.7
2022-10-18T07:33:05.938Z,14.8
2022-10-18T07:34:05.806Z,14.9
2022-10-18T07:35:05.836Z,14.9
2022-10-18T07:36:05.833Z,15
2022-10-18T07:37:05.831Z,15.1
2022-10-18T07:38:05.846Z,15.2
2022-10-18T07:39:05.834Z,15.2
2022-10-18T07:40:05.836Z,15.2
2022-10-18T07:41:05.861Z,15.3
2022-10-18T07:42:05.848Z,15.3
2022-10-18T07:43:07.506Z,15.3
2022-10-18T07:44:05.855Z,15.3
2022-10-18T07:45:05.851Z,15.3
2022-10-18T07:46:05.859Z,15.3
2022-10-18T07:47:05.880Z,15.3
2022-10-18T07:48:05.862Z,15.3
2022-10-18T07:49:05.851Z,15.3
2022-10-18T07:50:05.868Z,15.2
2022-10-18T07:51:05.862Z,15.2
2022-10-18T07:52:05.873Z,15.2
2022-10-18T07:53:05.884Z,15.2
2022-10-18T07:54:05.892Z,15.1
2022-10-18T07:55:05.886Z,15.1
2022-10-18T07:56:07.235Z,15.2
2022-10-18T07:57:05.913Z,15.2
2022-10-18T07:58:05.915Z,15.2
2022-10-18T07:59:05.898Z,15.2
2022-10-18T08:00:05.930Z,15.2
2022-10-18T08:01:06.145Z,15.3
2022-10-18T08:02:06.004Z,15.4
2022-10-18T08:03:05.938Z,15.4
2022-10-18T08:04:07.872Z,15.5
2022-10-18T08:05:05.950Z,15.5
2022-10-18T08:06:05.946Z,15.6
2022-10-18T08:07:05.941Z,15.6
2022-10-18T08:08:07.257Z,15.7
2022-10-18T08:09:05.921Z,15.7
2022-10-18T08:10:05.944Z,15.7
2022-10-18T08:11:05.924Z,15.8
2022-10-18T08:12:05.929Z,15.8
2022-10-18T08:13:05.935Z,15.9
2022-10-18T08:14:05.930Z,15.9
2022-10-18T08:15:05.952Z,16
2022-10-18T08:16:05.956Z,16
2022-10-18T08:17:05.948Z,16
2022-10-18T08:18:06.000Z,16.1
2022-10-18T08:19:05.958Z,16.2
2022-10-18T08:20:11.968Z,16.2
2022-10-18T08:21:05.932Z,16.3
2022-10-18T08:22:05.956Z,16.3
2022-10-18T08:23:05.941Z,16.3
2022-10-18T08:24:05.995Z,16.3
2022-10-18T08:25:06.055Z,16.4
2022-10-18T08:26:05.969Z,16.4
2022-10-18T08:27:05.980Z,16.4
2022-10-18T08:28:05.980Z,16.3
2022-10-18T08:30:05.983Z,16.3
2022-10-18T08:31:06.012Z,16.3
2022-10-18T08:32:06.026Z,16.3
2022-10-18T08:33:06.017Z,16.3
2022-10-18T08:34:06.006Z,16.4
2022-10-18T08:35:08.470Z,16.4
2022-10-18T08:36:06.021Z,16.5
2022-10-18T08:37:06.011Z,16.5
2022-10-18T08:38:06.027Z,16.6
2022-10-18T08:39:05.983Z,16.7
2022-10-18T08:40:05.994Z,16.8
2022-10-18T08:41:05.983Z,16.9
2022-10-18T08:42:06.012Z,17
2022-10-18T08:43:06.010Z,17.1
2022-10-18T08:44:07.075Z,17.2
2022-10-18T08:45:12.484Z,17.2
2022-10-18T08:46:05.995Z,17.3
2022-10-18T08:47:06.010Z,17.3
2022-10-18T08:48:06.011Z,17.4
2022-10-18T08:49:06.004Z,17.4
2022-10-18T08:50:06.013Z,17.5
2022-10-18T08:51:06.032Z,17.5
2022-10-18T08:52:06.024Z,17.5
2022-10-18T08:53:06.038Z,17.6
2022-10-18T08:54:06.028Z,17.6
2022-10-18T08:55:06.029Z,17.7
2022-10-18T08:56:06.035Z,17.8
2022-10-18T08:57:06.027Z,17.8
2022-10-18T08:58:06.178Z,17.9
2022-10-18T08:59:06.011Z,17.9
2022-10-18T09:00:06.018Z,18
2022-10-18T09:01:06.026Z,18
2022-10-18T09:02:06.034Z,18
2022-10-18T09:03:06.110Z,18
2022-10-18T09:04:06.037Z,18
2022-10-18T09:05:06.070Z,18.1
2022-10-18T09:06:06.073Z,18
2022-10-18T09:07:06.065Z,18
2022-10-18T09:08:06.057Z,18
2022-10-18T09:09:06.050Z,17.9
2022-10-18T09:10:06.111Z,17.9
2022-10-18T09:11:06.052Z,17.8
2022-10-18T09:12:06.056Z,17.8
2022-10-18T09:13:06.057Z,17.8
2022-10-18T09:14:06.073Z,17.8
2022-10-18T09:15:06.061Z,17.8
2022-10-18T09:16:06.075Z,17.8
2022-10-18T09:17:06.077Z,17.8
2022-10-18T09:18:06.076Z,17.8
2022-10-18T09:19:06.080Z,17.9
2022-10-18T09:20:06.119Z,17.9
2022-10-18T09:21:06.099Z,18
2022-10-18T09:22:07.401Z,18.1
2022-10-18T09:23:06.164Z,18.1
2022-10-18T09:24:06.090Z,18.1
2022-10-18T09:25:06.123Z,18.2
2022-10-18T09:26:06.107Z,18.2
2022-10-18T09:27:06.124Z,18.2
2022-10-18T09:28:06.117Z,18.2
2022-10-18T09:29:06.193Z,18.2
2022-10-18T09:30:06.116Z,18.2
2022-10-18T09:31:06.098Z,18.1
2022-10-18T09:32:06.118Z,18.1
2022-10-18T09:33:06.121Z,18.1
2022-10-18T09:34:06.109Z,18
2022-10-18T09:35:06.106Z,18
2022-10-18T09:36:06.245Z,17.9
2022-10-18T09:37:06.125Z,17.8
2022-10-18T09:38:06.167Z,17.7
2022-10-18T09:39:06.140Z,17.7
2022-10-18T09:40:06.132Z,17.6
2022-10-18T09:41:06.131Z,17.6
2022-10-18T09:42:06.134Z,17.5
2022-10-18T09:43:06.144Z,17.5
2022-10-18T09:44:06.166Z,17.5
2022-10-18T09:45:06.138Z,17.4
2022-10-18T09:46:06.133Z,17.4
2022-10-18T09:47:06.144Z,17.3
2022-10-18T09:48:06.300Z,17.3
2022-10-18T09:49:06.165Z,17.3
2022-10-18T09:50:06.181Z,17.3
2022-10-18T09:51:06.164Z,17.3
2022-10-18T09:52:06.178Z,17.3
2022-10-18T09:53:06.170Z,17.3
2022-10-18T09:54:06.184Z,17.3
2022-10-18T09:55:06.213Z,17.4
2022-10-18T09:56:06.180Z,17.4
2022-10-18T09:57:06.214Z,17.4
2022-10-18T09:58:06.223Z,17.4
2022-10-18T09:59:06.202Z,17.4
2022-10-18T10:00:06.213Z,17.4
2022-10-18T10:01:06.204Z,17.5
2022-10-18T10:02:06.283Z,17.5
2022-10-18T10:03:06.233Z,17.5
2022-10-18T10:04:06.245Z,17.5
2022-10-18T10:05:06.266Z,17.5
2022-10-18T10:06:06.235Z,17.6
2022-10-18T10:07:06.216Z,17.6
2022-10-18T10:08:06.278Z,17.6
2022-10-18T10:09:06.239Z,17.6
2022-10-18T10:10:06.222Z,17.7
2022-10-18T10:11:06.257Z,17.7
2022-10-18T10:12:06.239Z,17.7
2022-10-18T10:13:06.240Z,17.7
2022-10-18T10:14:06.295Z,17.7
2022-10-18T10:15:06.237Z,17.7
2022-10-18T10:16:06.232Z,17.8
2022-10-18T10:17:06.237Z,17.8
2022-10-18T10:18:06.309Z,17.8
2022-10-18T10:19:06.247Z,17.8
2022-10-18T10:20:06.264Z,17.8
2022-10-18T10:21:06.268Z,17.8
2022-10-18T10:22:06.278Z,17.9
2022-10-18T10:23:06.293Z,17.9
2022-10-18T10:24:06.257Z,17.9
2022-10-18T10:25:06.252Z,18
2022-10-18T10:26:06.276Z,18
2022-10-18T10:27:06.291Z,18
2022-10-18T10:28:06.354Z,18.1
2022-10-18T10:29:09.952Z,18.1
2022-10-18T10:30:07.397Z,18.1
2022-10-18T10:31:06.265Z,18.1
2022-10-18T10:32:06.289Z,18.1
2022-10-18T10:33:06.316Z,18.2
2022-10-18T10:34:06.318Z,18.2
2022-10-18T10:35:06.553Z,18.2
2022-10-18T10:36:06.297Z,18.2
2022-10-18T10:37:06.275Z,18.2
2022-10-18T10:38:06.367Z,18.2
2022-10-18T10:39:06.311Z,18.3
2022-10-18T10:40:17.646Z,18.3
2022-10-18T10:41:06.301Z,18.3
2022-10-18T10:42:07.920Z,18.2
2022-10-18T10:43:13.127Z,18.3
2022-10-18T10:44:06.315Z,18.3
2022-10-18T10:45:06.298Z,18.3
2022-10-18T10:46:06.320Z,18.3
2022-10-18T10:47:06.312Z,18.3
2022-10-18T10:48:06.327Z,18.3
2022-10-18T10:49:38.960Z,18.3
2022-10-18T10:50:06.315Z,18.3
2022-10-18T10:51:06.297Z,18.3
2022-10-18T10:52:25.821Z,18.3
2022-10-18T10:53:06.323Z,18.3
2022-10-18T10:54:06.306Z,18.3
2022-10-18T10:55:23.485Z,18.3
2022-10-18T10:56:06.321Z,18.3
2022-10-18T10:57:06.320Z,18.3
2022-10-18T10:58:06.327Z,18.3
2022-10-18T10:59:06.367Z,18.3
2022-10-18T11:00:06.324Z,18.3
2022-10-18T11:01:07.828Z,18.3
2022-10-18T11:02:06.318Z,18.3
2022-10-18T11:03:24.065Z,18.3
2022-10-18T11:04:06.347Z,18.3
2022-10-18T11:05:06.322Z,18.4
2022-10-18T11:06:06.311Z,18.4
2022-10-18T11:07:06.326Z,18.4
2022-10-18T11:08:06.340Z,18.4
2022-10-18T11:09:06.346Z,18.4
2022-10-18T11:10:06.330Z,18.5
2022-10-18T11:11:06.428Z,18.6
2022-10-18T11:12:06.354Z,18.6
2022-10-18T11:13:06.356Z,18.6
2022-10-18T11:14:24.503Z,18.7
2022-10-18T11:15:06.389Z,18.7
2022-10-18T11:16:06.405Z,18.7
2022-10-18T11:17:08.038Z,18.7
2022-10-18T11:18:06.371Z,18.8
2022-10-18T11:19:06.368Z,18.8
2022-10-18T11:20:06.365Z,18.8
2022-10-18T11:21:06.369Z,18.8
2022-10-18T11:22:06.362Z,18.8
2022-10-18T11:23:06.408Z,18.8
2022-10-18T11:24:06.390Z,18.8
2022-10-18T11:25:06.406Z,18.7
2022-10-18T11:26:06.379Z,18.7
2022-10-18T11:27:06.398Z,18.7
2022-10-18T11:28:06.396Z,18.7
2022-10-18T11:29:06.414Z,18.7
2022-10-18T11:30:06.410Z,18.7
2022-10-18T11:31:06.432Z,18.6
2022-10-18T11:32:06.395Z,18.7
2022-10-18T11:33:06.398Z,18.7
2022-10-18T11:34:10.256Z,18.7
2022-10-18T11:35:06.401Z,18.7
2022-10-18T11:36:06.409Z,18.7
2022-10-18T11:38:06.425Z,18.8
2022-10-18T11:39:06.407Z,18.8
2022-10-18T11:40:06.440Z,18.8
2022-10-18T11:41:06.415Z,18.8
2022-10-18T11:42:06.424Z,18.8
2022-10-18T11:43:06.441Z,18.8
2022-10-18T11:44:06.431Z,18.9
2022-10-18T11:45:06.430Z,18.9
2022-10-18T11:46:06.460Z,18.9
2022-10-18T11:47:06.477Z,18.9
2022-10-18T11:48:06.465Z,18.8
2022-10-18T11:49:06.461Z,18.8
2022-10-18T11:50:06.434Z,18.8
2022-10-18T11:51:06.433Z,18.8
2022-10-18T11:52:08.914Z,18.8
2022-10-18T11:53:06.441Z,18.8
2022-10-18T11:54:06.441Z,18.8
2022-10-18T11:55:06.467Z,18.8
2022-10-18T11:56:06.459Z,18.8
2022-10-18T11:57:06.450Z,18.8
2022-10-18T11:58:06.461Z,18.8
2022-10-18T11:59:06.465Z,18.8
2022-10-18T12:00:06.448Z,18.8
2022-10-18T12:01:06.440Z,18.8
2022-10-18T12:02:06.449Z,18.8
2022-10-18T12:03:06.557Z,18.8
2022-10-18T12:04:06.479Z,18.8
2022-10-18T12:06:06.491Z,18.8
2022-10-18T12:07:06.466Z,18.8
2022-10-18T12:08:06.605Z,18.9
2022-10-18T12:09:06.474Z,18.9
2022-10-18T12:10:06.481Z,18.9
2022-10-18T12:11:06.950Z,18.9
2022-10-18T12:12:06.492Z,19
2022-10-18T12:13:06.503Z,19
2022-10-18T12:14:06.478Z,19
2022-10-18T12:15:06.492Z,19.1
2022-10-18T12:16:06.517Z,19.1
2022-10-18T12:17:39.215Z,19.1
2022-10-18T12:18:06.516Z,19.1
2022-10-18T12:19:06.526Z,19.1
2022-10-18T12:20:06.526Z,19.1
2022-10-18T12:21:06.513Z,19.1
2022-10-18T12:22:06.541Z,19.2
2022-10-18T12:23:06.530Z,19.2
2022-10-18T12:24:06.513Z,19.2
2022-10-18T12:25:06.531Z,19.2
2022-10-18T12:26:06.518Z,19.2
2022-10-18T12:27:06.511Z,19.1
2022-10-18T12:28:06.574Z,19.1
2022-10-18T12:29:06.595Z,19.1
2022-10-18T12:30:06.525Z,19.1
2022-10-18T12:31:06.531Z,19.1
2022-10-18T12:32:06.529Z,19.2
2022-10-18T12:33:23.475Z,19.2
2022-10-18T12:34:06.523Z,19.2
2022-10-18T12:35:06.558Z,19.2
2022-10-18T12:36:06.552Z,19.2
2022-10-18T12:37:06.569Z,19.2
2022-10-18T12:38:06.558Z,19.2
2022-10-18T12:39:06.555Z,19.2
2022-10-18T12:40:12.316Z,19.2
2022-10-18T12:41:06.547Z,19.2
2022-10-18T12:42:06.557Z,19.2
2022-10-18T12:43:06.596Z,19.2
2022-10-18T12:44:06.570Z,19.2
2022-10-18T12:45:06.560Z,19.2
2022-10-18T12:46:10.833Z,19.2
2022-10-18T12:47:06.569Z,19.3
2022-10-18T12:48:06.576Z,19.3
2022-10-18T12:49:06.598Z,19.3
2022-10-18T12:50:06.629Z,19.3
2022-10-18T12:51:06.606Z,19.4
2022-10-18T12:52:06.616Z,19.4
2022-10-18T12:53:06.606Z,19.4
2022-10-18T12:54:06.574Z,19.4
2022-10-18T12:55:06.595Z,19.4
2022-10-18T12:56:06.574Z,19.4
2022-10-18T12:57:06.596Z,19.4
2022-10-18T12:58:06.635Z,19.4
2022-10-18T12:59:06.607Z,19.4
2022-10-18T13:00:06.651Z,19.4
2022-10-18T13:01:06.668Z,19.5
2022-10-18T13:02:06.593Z,19.5
2022-10-18T13:03:06.621Z,19.5
2022-10-18T13:04:06.622Z,19.5
2022-10-18T13:05:12.262Z,19.4
2022-10-18T13:06:06.972Z,19.4
2022-10-18T13:07:06.639Z,19.4
2022-10-18T13:08:06.631Z,19.4
2022-10-18T13:09:06.610Z,19.4
2022-10-18T13:10:06.612Z,19.4
2022-10-18T13:11:06.614Z,19.4
2022-10-18T13:12:06.604Z,19.4
2022-10-18T13:13:19.314Z,19.4
2022-10-18T13:14:06.685Z,19.4
2022-10-18T13:15:21.019Z,19.4
2022-10-18T13:16:06.622Z,19.4
2022-10-18T13:17:06.632Z,19.4
2022-10-18T13:18:06.668Z,19.4
2022-10-18T13:19:06.654Z,19.4
2022-10-18T13:20:24.908Z,19.4
2022-10-18T13:21:06.657Z,19.4
2022-10-18T13:22:06.650Z,19.4
2022-10-18T13:23:06.745Z,19.4
2022-10-18T13:24:06.663Z,19.4
2022-10-18T13:25:06.674Z,19.5
2022-10-18T13:26:06.666Z,19.5
2022-10-18T13:27:24.240Z,19.5